sensor_id;sensor_type;location;lat;lon;timestamp;pressure;altitude;pressure_sealevel;temperature;humidity
47524;BME280;33253;42.144;25.884;2023-07-13T00:01:44;100468.81;;;25.08;97.55
47524;BME280;33253;42.144;25.884;2023-07-13T00:04:11;100459.41;;;24.94;97.64
47524;BME280;33253;42.144;25.884;2023-07-13T00:06:37;100474.50;;;24.89;98.27
47524;BME280;33253;42.144;25.884;2023-07-13T00:09:03;100432.56;;;24.75;97.99
47524;BME280;33253;42.144;25.884;2023-07-13T00:11:28;100470.75;;;24.99;97.75
47524;BME280;33253;42.144;25.884;2023-07-13T00:13:53;100467.34;;;24.94;98.07
47524;BME280;33253;42.144;25.884;2023-07-13T00:16:19;100456.03;;;24.89;98.14
47524;BME280;33253;42.144;25.884;2023-07-13T00:18:45;100462.00;;;24.97;97.58
47524;BME280;33253;42.144;25.884;2023-07-13T00:21:11;100451.53;;;24.93;97.90
47524;BME280;33253;42.144;25.884;2023-07-13T00:23:40;100416.81;;;24.70;97.98
47524;BME280;33253;42.144;25.884;2023-07-13T00:26:08;100471.19;;;24.79;98.69
47524;BME280;33253;42.144;25.884;2023-07-13T00:28:34;100461.66;;;24.74;98.52
47524;BME280;33253;42.144;25.884;2023-07-13T00:31:00;100453.75;;;24.74;98.38
47524;BME280;33253;42.144;25.884;2023-07-13T00:33:28;100454.38;;;24.85;98.07
47524;BME280;33253;42.144;25.884;2023-07-13T00:35:55;100456.34;;;24.75;98.62
47524;BME280;33253;42.144;25.884;2023-07-13T00:38:21;100419.03;;;24.48;98.81
47524;BME280;33253;42.144;25.884;2023-07-13T00:40:47;100395.59;;;24.34;98.76
47524;BME280;33253;42.144;25.884;2023-07-13T00:43:15;100448.81;;;24.55;99.11
47524;BME280;33253;42.144;25.884;2023-07-13T00:48:06;100435.75;;;24.49;98.71
47524;BME280;33253;42.144;25.884;2023-07-13T00:50:32;100434.66;;;24.59;98.17
47524;BME280;33253;42.144;25.884;2023-07-13T00:52:57;100442.09;;;24.82;97.66
47524;BME280;33253;42.144;25.884;2023-07-13T00:55:23;100433.38;;;24.77;97.37
47524;BME280;33253;42.144;25.884;2023-07-13T00:57:49;100424.91;;;24.63;97.48
47524;BME280;33253;42.144;25.884;2023-07-13T01:00:14;100436.31;;;24.63;97.87
47524;BME280;33253;42.144;25.884;2023-07-13T01:02:44;100433.56;;;24.69;97.55
47524;BME280;33253;42.144;25.884;2023-07-13T01:05:13;100413.97;;;24.39;97.95
47524;BME280;33253;42.144;25.884;2023-07-13T01:07:40;100410.56;;;24.32;98.03
47524;BME280;33253;42.144;25.884;2023-07-13T01:10:07;100435.13;;;24.37;98.63
47524;BME280;33253;42.144;25.884;2023-07-13T01:12:33;100429.88;;;24.34;98.56
47524;BME280;33253;42.144;25.884;2023-07-13T01:15:00;100430.53;;;24.46;98.22
47524;BME280;33253;42.144;25.884;2023-07-13T01:17:28;100434.78;;;24.53;98.19
47524;BME280;33253;42.144;25.884;2023-07-13T01:19:54;100433.94;;;24.51;97.73
47524;BME280;33253;42.144;25.884;2023-07-13T01:22:20;100437.47;;;24.50;98.02
47524;BME280;33253;42.144;25.884;2023-07-13T01:24:51;100409.63;;;24.36;97.99
47524;BME280;33253;42.144;25.884;2023-07-13T01:27:21;100437.63;;;24.44;98.29
47524;BME280;33253;42.144;25.884;2023-07-13T01:29:47;100415.97;;;24.26;98.63
47524;BME280;33253;42.144;25.884;2023-07-13T01:32:23;100428.38;;;24.22;99.07
47524;BME280;33253;42.144;25.884;2023-07-13T01:34:51;100419.66;;;24.19;99.59
47524;BME280;33253;42.144;25.884;2023-07-13T01:37:20;100421.50;;;24.14;99.58
47524;BME280;33253;42.144;25.884;2023-07-13T01:39:46;100421.97;;;23.89;100.00
47524;BME280;33253;42.144;25.884;2023-07-13T01:42:12;100407.50;;;23.63;100.00
47524;BME280;33253;42.144;25.884;2023-07-13T01:44:37;100389.09;;;23.60;100.00
47524;BME280;33253;42.144;25.884;2023-07-13T01:47:03;100412.81;;;23.62;100.00
47524;BME280;33253;42.144;25.884;2023-07-13T01:49:29;100403.88;;;23.70;100.00
47524;BME280;33253;42.144;25.884;2023-07-13T01:51:54;100420.38;;;23.80;100.00
47524;BME280;33253;42.144;25.884;2023-07-13T01:54:20;100388.09;;;23.67;100.00
47524;BME280;33253;42.144;25.884;2023-07-13T01:56:45;100422.22;;;23.75;100.00
47524;BME280;33253;42.144;25.884;2023-07-13T01:59:10;100432.66;;;23.80;100.00
47524;BME280;33253;42.144;25.884;2023-07-13T02:01:36;100426.41;;;23.87;100.00
47524;BME280;33253;42.144;25.884;2023-07-13T02:04:02;100424.03;;;23.73;100.00
47524;BME280;33253;42.144;25.884;2023-07-13T02:06:28;100432.38;;;23.47;100.00
47524;BME280;33253;42.144;25.884;2023-07-13T02:08:53;100402.72;;;23.34;100.00
47524;BME280;33253;42.144;25.884;2023-07-13T02:11:18;100437.84;;;23.36;100.00
47524;BME280;33253;42.144;25.884;2023-07-13T02:13:44;100436.91;;;23.38;100.00
47524;BME280;33253;42.144;25.884;2023-07-13T02:16:09;100436.94;;;23.37;100.00
47524;BME280;33253;42.144;25.884;2023-07-13T02:18:35;100440.56;;;23.30;100.00
47524;BME280;33253;42.144;25.884;2023-07-13T02:21:00;100443.91;;;23.39;100.00
47524;BME280;33253;42.144;25.884;2023-07-13T02:23:26;100442.97;;;23.43;100.00
47524;BME280;33253;42.144;25.884;2023-07-13T02:25:55;100441.22;;;23.44;100.00
47524;BME280;33253;42.144;25.884;2023-07-13T02:28:21;100443.13;;;23.34;100.00
47524;BME280;33253;42.144;25.884;2023-07-13T02:30:46;100456.13;;;23.43;100.00
47524;BME280;33253;42.144;25.884;2023-07-13T02:33:12;100451.13;;;23.28;100.00
47524;BME280;33253;42.144;25.884;2023-07-13T02:35:37;100443.22;;;23.28;100.00
47524;BME280;33253;42.144;25.884;2023-07-13T02:38:03;100415.47;;;23.05;100.00
47524;BME280;33253;42.144;25.884;2023-07-13T02:40:29;100456.44;;;23.25;100.00
47524;BME280;33253;42.144;25.884;2023-07-13T02:42:54;100452.94;;;23.24;100.00
47524;BME280;33253;42.144;25.884;2023-07-13T02:45:19;100445.03;;;23.24;100.00
47524;BME280;33253;42.144;25.884;2023-07-13T02:47:45;100397.88;;;23.07;100.00
47524;BME280;33253;42.144;25.884;2023-07-13T02:50:11;100447.41;;;23.41;100.00
47524;BME280;33253;42.144;25.884;2023-07-13T02:52:36;100453.41;;;23.50;100.00
47524;BME280;33253;42.144;25.884;2023-07-13T02:55:02;100453.25;;;23.57;100.00
47524;BME280;33253;42.144;25.884;2023-07-13T02:57:28;100460.13;;;23.68;100.00
47524;BME280;33253;42.144;25.884;2023-07-13T02:59:53;100457.28;;;23.79;100.00
47524;BME280;33253;42.144;25.884;2023-07-13T03:02:19;100458.94;;;23.86;98.82
47524;BME280;33253;42.144;25.884;2023-07-13T03:04:45;100463.78;;;24.11;97.25
47524;BME280;33253;42.144;25.884;2023-07-13T03:07:11;100448.81;;;24.13;95.35
47524;BME280;33253;42.144;25.884;2023-07-13T03:09:37;100457.41;;;24.22;95.11
47524;BME280;33253;42.144;25.884;2023-07-13T03:12:03;100448.44;;;24.30;93.64
47524;BME280;33253;42.144;25.884;2023-07-13T03:14:28;100446.69;;;24.29;94.03
47524;BME280;33253;42.144;25.884;2023-07-13T03:16:54;100437.16;;;24.23;94.45
47524;BME280;33253;42.144;25.884;2023-07-13T03:19:19;100465.09;;;24.33;94.03
47524;BME280;33253;42.144;25.884;2023-07-13T03:21:45;100438.13;;;24.19;94.10
47524;BME280;33253;42.144;25.884;2023-07-13T03:24:11;100467.50;;;24.44;93.71
47524;BME280;33253;42.144;25.884;2023-07-13T03:26:37;100468.09;;;24.59;93.13
47524;BME280;33253;42.144;25.884;2023-07-13T03:29:02;100466.28;;;24.61;93.06
47524;BME280;33253;42.144;25.884;2023-07-13T03:31:29;100453.31;;;24.50;93.24
47524;BME280;33253;42.144;25.884;2023-07-13T03:33:56;100457.75;;;24.48;93.08
47524;BME280;33253;42.144;25.884;2023-07-13T03:36:25;100467.44;;;24.49;93.50
47524;BME280;33253;42.144;25.884;2023-07-13T03:38:54;100471.53;;;24.62;92.89
47524;BME280;33253;42.144;25.884;2023-07-13T03:41:21;100473.25;;;24.66;93.02
47524;BME280;33253;42.144;25.884;2023-07-13T03:43:48;100447.16;;;24.49;93.15
47524;BME280;33253;42.144;25.884;2023-07-13T03:46:14;100472.31;;;24.69;93.15
47524;BME280;33253;42.144;25.884;2023-07-13T03:48:41;100472.38;;;24.64;93.50
47524;BME280;33253;42.144;25.884;2023-07-13T03:51:09;100476.06;;;24.55;94.35
47524;BME280;33253;42.144;25.884;2023-07-13T03:53:39;100476.16;;;24.51;95.14
47524;BME280;33253;42.144;25.884;2023-07-13T03:56:04;100478.78;;;24.51;94.98
47524;BME280;33253;42.144;25.884;2023-07-13T03:58:31;100480.63;;;24.47;94.99
47524;BME280;33253;42.144;25.884;2023-07-13T04:00:57;100435.56;;;24.14;95.48
47524;BME280;33253;42.144;25.884;2023-07-13T04:03:23;100466.09;;;24.28;96.55
47524;BME280;33253;42.144;25.884;2023-07-13T04:05:49;100482.63;;;24.37;96.54
47524;BME280;33253;42.144;25.884;2023-07-13T04:08:15;100480.66;;;24.46;96.38
47524;BME280;33253;42.144;25.884;2023-07-13T04:10:41;100454.53;;;24.33;95.84
47524;BME280;33253;42.144;25.884;2023-07-13T04:13:07;100477.00;;;24.53;96.32
47524;BME280;33253;42.144;25.884;2023-07-13T04:15:32;100483.59;;;24.32;97.41
47524;BME280;33253;42.144;25.884;2023-07-13T04:17:58;100493.69;;;24.10;98.36
47524;BME280;33253;42.144;25.884;2023-07-13T04:20:26;100493.97;;;23.94;99.17
47524;BME280;33253;42.144;25.884;2023-07-13T04:22:52;100493.91;;;23.97;98.67
47524;BME280;33253;42.144;25.884;2023-07-13T04:25:21;100489.63;;;23.88;98.73
47524;BME280;33253;42.144;25.884;2023-07-13T04:27:46;100492.16;;;23.98;99.07
47524;BME280;33253;42.144;25.884;2023-07-13T04:30:12;100492.13;;;23.99;98.79
47524;BME280;33253;42.144;25.884;2023-07-13T04:32:38;100487.63;;;24.04;99.48
47524;BME280;33253;42.144;25.884;2023-07-13T04:35:04;100488.47;;;24.05;99.86
47524;BME280;33253;42.144;25.884;2023-07-13T04:37:49;100485.16;;;23.95;100.00
47524;BME280;33253;42.144;25.884;2023-07-13T04:40:18;100489.72;;;23.85;100.00
47524;BME280;33253;42.144;25.884;2023-07-13T04:42:47;100491.38;;;23.93;100.00
47524;BME280;33253;42.144;25.884;2023-07-13T04:45:13;100496.47;;;24.02;100.00
47524;BME280;33253;42.144;25.884;2023-07-13T04:47:39;100503.25;;;24.14;100.00
47524;BME280;33253;42.144;25.884;2023-07-13T04:50:07;100502.31;;;24.18;100.00
47524;BME280;33253;42.144;25.884;2023-07-13T04:52:32;100510.00;;;24.29;100.00
47524;BME280;33253;42.144;25.884;2023-07-13T04:54:58;100507.25;;;24.36;100.00
47524;BME280;33253;42.144;25.884;2023-07-13T04:57:25;100515.91;;;24.43;100.00
47524;BME280;33253;42.144;25.884;2023-07-13T04:59:50;100507.00;;;24.49;99.16
47524;BME280;33253;42.144;25.884;2023-07-13T05:02:15;100502.72;;;24.43;98.74
47524;BME280;33253;42.144;25.884;2023-07-13T05:04:41;100500.03;;;24.45;98.88
47524;BME280;33253;42.144;25.884;2023-07-13T05:07:07;100498.50;;;24.34;99.41
47524;BME280;33253;42.144;25.884;2023-07-13T05:09:32;100503.03;;;24.26;100.00
47524;BME280;33253;42.144;25.884;2023-07-13T05:11:58;100503.91;;;24.27;99.75
47524;BME280;33253;42.144;25.884;2023-07-13T05:14:23;100506.44;;;24.33;99.87
47524;BME280;33253;42.144;25.884;2023-07-13T05:16:48;100501.88;;;24.41;100.00
47524;BME280;33253;42.144;25.884;2023-07-13T05:19:14;100500.97;;;24.42;99.35
47524;BME280;33253;42.144;25.884;2023-07-13T05:21:39;100511.19;;;24.59;99.63
47524;BME280;33253;42.144;25.884;2023-07-13T05:24:06;100506.81;;;24.58;98.55
47524;BME280;33253;42.144;25.884;2023-07-13T05:26:31;100512.72;;;24.73;98.32
47524;BME280;33253;42.144;25.884;2023-07-13T05:28:57;100507.44;;;24.73;97.80
47524;BME280;33253;42.144;25.884;2023-07-13T05:31:22;100498.72;;;24.69;98.35
47524;BME280;33253;42.144;25.884;2023-07-13T05:33:48;100515.94;;;24.85;98.02
47524;BME280;33253;42.144;25.884;2023-07-13T05:36:13;100517.47;;;24.97;97.29
47524;BME280;33253;42.144;25.884;2023-07-13T05:38:38;100515.63;;;24.99;95.96
47524;BME280;33253;42.144;25.884;2023-07-13T05:41:06;100519.03;;;25.06;96.34
47524;BME280;33253;42.144;25.884;2023-07-13T05:43:32;100518.72;;;25.20;95.57
47524;BME280;33253;42.144;25.884;2023-07-13T05:45:57;100491.72;;;25.06;96.03
47524;BME280;33253;42.144;25.884;2023-07-13T05:48:23;100521.06;;;25.32;94.55
47524;BME280;33253;42.144;25.884;2023-07-13T05:50:49;100515.69;;;25.35;93.17
47524;BME280;33253;42.144;25.884;2023-07-13T05:53:15;100524.28;;;25.47;92.23
47524;BME280;33253;42.144;25.884;2023-07-13T05:55:44;100528.25;;;25.65;91.26
47524;BME280;33253;42.144;25.884;2023-07-13T05:58:13;100524.81;;;25.61;92.10
47524;BME280;33253;42.144;25.884;2023-07-13T06:00:39;100523.03;;;25.62;91.84
47524;BME280;33253;42.144;25.884;2023-07-13T06:03:05;100521.72;;;25.80;92.90
47524;BME280;33253;42.144;25.884;2023-07-13T06:05:32;100486.69;;;25.70;92.31
47524;BME280;33253;42.144;25.884;2023-07-13T06:07:59;100486.09;;;25.93;92.66
47524;BME280;33253;42.144;25.884;2023-07-13T06:10:24;100495.47;;;26.05;89.98
47524;BME280;33253;42.144;25.884;2023-07-13T06:12:50;100514.53;;;26.20;91.52
47524;BME280;33253;42.144;25.884;2023-07-13T06:15:15;100510.19;;;26.17;91.10
47524;BME280;33253;42.144;25.884;2023-07-13T06:17:41;100502.03;;;26.25;90.20
47524;BME280;33253;42.144;25.884;2023-07-13T06:20:07;100504.06;;;26.15;90.12
47524;BME280;33253;42.144;25.884;2023-07-13T06:22:32;100508.13;;;26.27;91.16
47524;BME280;33253;42.144;25.884;2023-07-13T06:24:57;100499.34;;;26.26;91.34
47524;BME280;33253;42.144;25.884;2023-07-13T06:27:23;100514.59;;;26.48;88.51
47524;BME280;33253;42.144;25.884;2023-07-13T06:29:49;100515.19;;;26.59;88.46
47524;BME280;33253;42.144;25.884;2023-07-13T06:32:14;100506.06;;;26.70;88.40
47524;BME280;33253;42.144;25.884;2023-07-13T06:34:40;100507.59;;;26.78;86.12
47524;BME280;33253;42.144;25.884;2023-07-13T06:37:05;100502.13;;;26.85;85.93
47524;BME280;33253;42.144;25.884;2023-07-13T06:39:31;100509.56;;;27.02;85.68
47524;BME280;33253;42.144;25.884;2023-07-13T06:41:57;100501.38;;;27.09;85.85
47524;BME280;33253;42.144;25.884;2023-07-13T06:44:22;100502.94;;;27.15;83.94
47524;BME280;33253;42.144;25.884;2023-07-13T06:46:48;100499.03;;;27.27;82.47
47524;BME280;33253;42.144;25.884;2023-07-13T06:49:13;100492.41;;;27.42;83.29
47524;BME280;33253;42.144;25.884;2023-07-13T06:51:38;100492.78;;;27.58;84.67
47524;BME280;33253;42.144;25.884;2023-07-13T06:54:04;100465.69;;;27.48;83.75
47524;BME280;33253;42.144;25.884;2023-07-13T06:56:29;100497.34;;;27.80;83.14
47524;BME280;33253;42.144;25.884;2023-07-13T06:58:55;100478.72;;;27.81;81.88
47524;BME280;33253;42.144;25.884;2023-07-13T07:01:20;100490.75;;;27.91;82.02
47524;BME280;33253;42.144;25.884;2023-07-13T07:03:46;100478.13;;;27.98;79.97
47524;BME280;33253;42.144;25.884;2023-07-13T07:08:38;100487.06;;;27.96;78.76
47524;BME280;33253;42.144;25.884;2023-07-13T07:11:03;100489.44;;;28.03;78.17
47524;BME280;33253;42.144;25.884;2023-07-13T07:13:28;100480.16;;;28.17;81.11
47524;BME280;33253;42.144;25.884;2023-07-13T07:15:55;100491.31;;;28.27;80.45
47524;BME280;33253;42.144;25.884;2023-07-13T07:18:21;100481.25;;;28.35;79.35
47524;BME280;33253;42.144;25.884;2023-07-13T07:20:46;100476.66;;;28.40;79.76
47524;BME280;33253;42.144;25.884;2023-07-13T07:23:11;100485.56;;;28.61;77.62
47524;BME280;33253;42.144;25.884;2023-07-13T07:25:37;100459.38;;;28.52;77.57
47524;BME280;33253;42.144;25.884;2023-07-13T07:28:07;100478.81;;;28.78;77.54
47524;BME280;33253;42.144;25.884;2023-07-13T07:30:33;100485.31;;;28.93;79.13
47524;BME280;33253;42.144;25.884;2023-07-13T07:32:58;100452.34;;;28.97;76.90
47524;BME280;33253;42.144;25.884;2023-07-13T07:35:24;100449.47;;;29.03;77.97
47524;BME280;33253;42.144;25.884;2023-07-13T07:37:49;100449.69;;;29.19;77.40
47524;BME280;33253;42.144;25.884;2023-07-13T07:40:15;100465.59;;;29.43;77.62
47524;BME280;33253;42.144;25.884;2023-07-13T07:42:40;100467.84;;;29.52;79.53
47524;BME280;33253;42.144;25.884;2023-07-13T07:45:06;100473.38;;;29.68;75.51
47524;BME280;33253;42.144;25.884;2023-07-13T07:47:32;100458.63;;;29.81;75.60
47524;BME280;33253;42.144;25.884;2023-07-13T07:49:57;100468.19;;;29.85;78.08
47524;BME280;33253;42.144;25.884;2023-07-13T07:52:23;100476.50;;;30.00;72.89
47524;BME280;33253;42.144;25.884;2023-07-13T07:54:48;100473.28;;;30.12;73.21
47524;BME280;33253;42.144;25.884;2023-07-13T07:57:13;100474.88;;;30.16;75.48
47524;BME280;33253;42.144;25.884;2023-07-13T07:59:39;100471.41;;;30.14;76.77
47524;BME280;33253;42.144;25.884;2023-07-13T08:02:05;100478.00;;;30.06;71.74
47524;BME280;33253;42.144;25.884;2023-07-13T08:04:30;100465.75;;;30.01;73.25
47524;BME280;33253;42.144;25.884;2023-07-13T08:06:56;100465.41;;;30.09;72.38
47524;BME280;33253;42.144;25.884;2023-07-13T08:09:22;100438.16;;;30.04;71.99
47524;BME280;33253;42.144;25.884;2023-07-13T08:11:47;100465.97;;;30.37;73.42
47524;BME280;33253;42.144;25.884;2023-07-13T08:14:13;100465.84;;;30.40;70.81
47524;BME280;33253;42.144;25.884;2023-07-13T08:16:39;100463.81;;;30.45;71.84
47524;BME280;33253;42.144;25.884;2023-07-13T08:19:05;100458.03;;;30.56;70.50
47524;BME280;33253;42.144;25.884;2023-07-13T08:21:31;100450.59;;;30.62;70.39
47524;BME280;33253;42.144;25.884;2023-07-13T08:23:57;100454.72;;;30.70;70.37
47524;BME280;33253;42.144;25.884;2023-07-13T08:26:23;100449.81;;;30.79;70.40
47524;BME280;33253;42.144;25.884;2023-07-13T08:28:48;100441.56;;;30.84;69.37
47524;BME280;33253;42.144;25.884;2023-07-13T08:31:15;100446.09;;;31.01;68.47
47524;BME280;33253;42.144;25.884;2023-07-13T08:33:40;100447.38;;;31.11;69.50
47524;BME280;33253;42.144;25.884;2023-07-13T08:36:06;100435.66;;;31.16;67.44
47524;BME280;33253;42.144;25.884;2023-07-13T08:38:32;100422.00;;;31.03;67.91
47524;BME280;33253;42.144;25.884;2023-07-13T08:40:57;100449.00;;;31.16;69.08
47524;BME280;33253;42.144;25.884;2023-07-13T08:43:30;100429.22;;;31.20;67.71
47524;BME280;33253;42.144;25.884;2023-07-13T08:46:05;100439.91;;;31.37;66.78
47524;BME280;33253;42.144;25.884;2023-07-13T08:48:47;100422.06;;;31.38;65.69
47524;BME280;33253;42.144;25.884;2023-07-13T08:54:01;100438.78;;;31.76;60.90
47524;BME280;33253;42.144;25.884;2023-07-13T08:56:29;100430.78;;;31.94;63.65
47524;BME280;33253;42.144;25.884;2023-07-13T08:59:00;100442.38;;;32.10;60.20
47524;BME280;33253;42.144;25.884;2023-07-13T09:04:22;100443.19;;;32.29;59.89
47524;BME280;33253;42.144;25.884;2023-07-13T09:06:59;100449.44;;;32.45;57.93
47524;BME280;33253;42.144;25.884;2023-07-13T09:14:38;100447.97;;;32.87;58.61
47524;BME280;33253;42.144;25.884;2023-07-13T09:17:14;100439.59;;;32.94;55.05
47524;BME280;33253;42.144;25.884;2023-07-13T09:19:41;100425.97;;;32.98;54.79
47524;BME280;33253;42.144;25.884;2023-07-13T09:22:14;100419.75;;;33.14;55.16
47524;BME280;33253;42.144;25.884;2023-07-13T09:24:54;100413.59;;;33.28;58.39
47524;BME280;33253;42.144;25.884;2023-07-13T09:27:30;100420.72;;;33.43;54.57
47524;BME280;33253;42.144;25.884;2023-07-13T09:30:21;100420.75;;;33.58;51.04
47524;BME280;33253;42.144;25.884;2023-07-13T09:32:52;100408.06;;;33.76;51.83
47524;BME280;33253;42.144;25.884;2023-07-13T09:35:25;100417.88;;;33.91;50.54
47524;BME280;33253;42.144;25.884;2023-07-13T09:37:57;100406.59;;;33.86;50.84
47524;BME280;33253;42.144;25.884;2023-07-13T09:40:50;100404.66;;;34.02;51.69
47524;BME280;33253;42.144;25.884;2023-07-13T09:43:20;100394.91;;;34.16;52.00
47524;BME280;33253;42.144;25.884;2023-07-13T09:45:46;100394.75;;;34.32;49.47
47524;BME280;33253;42.144;25.884;2023-07-13T09:48:14;100389.69;;;34.42;48.78
47524;BME280;33253;42.144;25.884;2023-07-13T09:50:40;100389.78;;;34.55;49.23
47524;BME280;33253;42.144;25.884;2023-07-13T09:53:12;100389.38;;;34.61;54.45
47524;BME280;33253;42.144;25.884;2023-07-13T09:55:39;100387.50;;;34.48;49.65
47524;BME280;33253;42.144;25.884;2023-07-13T09:58:20;100372.53;;;34.59;47.88
47524;BME280;33253;42.144;25.884;2023-07-13T10:03:26;100349.06;;;34.62;51.78
47524;BME280;33253;42.144;25.884;2023-07-13T10:05:52;100374.16;;;34.89;45.66
47524;BME280;33253;42.144;25.884;2023-07-13T10:08:29;100371.50;;;35.02;45.47
47524;BME280;33253;42.144;25.884;2023-07-13T10:11:28;100362.09;;;35.09;44.70
47524;BME280;33253;42.144;25.884;2023-07-13T10:14:00;100341.56;;;35.08;41.79
47524;BME280;33253;42.144;25.884;2023-07-13T10:16:32;100354.53;;;35.41;42.80
47524;BME280;33253;42.144;25.884;2023-07-13T10:19:02;100307.88;;;35.17;41.20
